createdAt,value
2022-09-22T00:01:28.702Z,100558.50
2022-09-22T00:04:03.272Z,100561.91
2022-09-22T00:06:52.026Z,100566.97
2022-09-22T00:09:21.055Z,100561.91
2022-09-22T00:11:51.792Z,100559.34
2022-09-22T00:14:26.161Z,100560.19
2022-09-22T00:16:58.802Z,100568.66
2022-09-22T00:19:29.857Z,100566.94
2022-09-22T00:21:56.777Z,100565.22
2022-09-22T00:24:26.699Z,100570.28
2022-09-22T00:26:57.524Z,100563.50
2022-09-22T00:29:27.046Z,100567.75
2022-09-22T00:31:55.522Z,100568.59
2022-09-22T00:34:25.640Z,100556.72
2022-09-22T00:36:53.025Z,100556.69
2022-09-22T00:39:20.014Z,100565.19
2022-09-22T00:41:50.970Z,100558.38
2022-09-22T00:44:27.142Z,100560.06
2022-09-22T00:47:10.942Z,100555.81
2022-09-22T00:50:08.256Z,100550.72
2022-09-22T00:52:46.949Z,100553.22
2022-09-22T00:55:21.077Z,100553.22
2022-09-22T00:57:49.496Z,100555.78
2022-09-22T01:00:17.172Z,100548.16
2022-09-22T01:02:50.681Z,100546.44
2022-09-22T01:05:19.713Z,100543.06
2022-09-22T01:07:48.376Z,100539.66
2022-09-22T01:10:15.359Z,100540.50
2022-09-22T01:13:01.377Z,100536.25
2022-09-22T01:16:00.113Z,100537.06
2022-09-22T01:18:59.032Z,100524.31
2022-09-22T01:21:59.093Z,100521.75
2022-09-22T01:24:52.482Z,100522.56
2022-09-22T01:28:03.581Z,100518.34
2022-09-22T01:30:47.695Z,100520.88
2022-09-22T01:34:02.037Z,100520.00
2022-09-22T01:36:49.706Z,100520.81
2022-09-22T01:39:26.118Z,100515.75
2022-09-22T01:42:00.877Z,100511.53
2022-09-22T01:44:36.652Z,100513.22
2022-09-22T01:47:17.910Z,100512.38
2022-09-22T01:49:52.208Z,100506.41
2022-09-22T01:52:26.973Z,100508.13
2022-09-22T01:55:01.203Z,100503.88
2022-09-22T01:57:54.532Z,100500.50
2022-09-22T02:00:23.422Z,100501.34
2022-09-22T02:03:09.531Z,100497.09
2022-09-22T02:05:46.169Z,100494.53
2022-09-22T02:08:56.614Z,100491.13
2022-09-22T02:11:23.733Z,100490.25
2022-09-22T02:13:51.692Z,100492.78
2022-09-22T02:16:22.407Z,100486.88
2022-09-22T02:19:13.387Z,100484.34
2022-09-22T02:21:44.780Z,100488.53
2022-09-22T02:24:40.368Z,100486.00
2022-09-22T02:27:14.595Z,100489.38
2022-09-22T02:29:51.504Z,100489.38
2022-09-22T02:32:21.122Z,100480.94
2022-09-22T02:34:48.638Z,100479.22
2022-09-22T02:37:33.886Z,100475.84
2022-09-22T02:40:37.664Z,100480.06
2022-09-22T02:43:24.001Z,100484.28
2022-09-22T02:46:05.248Z,100476.69
2022-09-22T02:48:46.373Z,100474.13
2022-09-22T02:51:15.448Z,100469.91
2022-09-22T02:53:42.308Z,100467.34
2022-09-22T02:56:09.224Z,100466.53
2022-09-22T02:58:36.234Z,100467.34
2022-09-22T03:01:03.199Z,100469.06
2022-09-22T03:03:30.014Z,100454.66
2022-09-22T03:05:56.767Z,100458.06
2022-09-22T03:08:23.517Z,100459.75
2022-09-22T03:10:50.384Z,100457.22
2022-09-22T03:13:17.701Z,100452.13
2022-09-22T03:15:45.844Z,100451.28
2022-09-22T03:18:13.690Z,100456.38
2022-09-22T03:20:40.653Z,100452.13
2022-09-22T03:23:07.959Z,100450.41
2022-09-22T03:25:34.892Z,100452.97
2022-09-22T03:28:02.518Z,100443.63
2022-09-22T03:30:29.651Z,100436.03
2022-09-22T03:32:56.672Z,100433.47
2022-09-22T03:35:23.417Z,100439.38
2022-09-22T03:37:50.208Z,100437.69
2022-09-22T03:40:17.070Z,100441.91
2022-09-22T03:42:44.697Z,100435.13
2022-09-22T03:45:12.680Z,100435.97
2022-09-22T03:47:39.601Z,100432.56
2022-09-22T03:50:07.153Z,100433.38
2022-09-22T03:52:34.739Z,100442.63
2022-09-22T03:55:02.932Z,100437.53
2022-09-22T03:57:30.344Z,100440.91
2022-09-22T03:59:57.271Z,100446.81
2022-09-22T04:02:24.034Z,100440.00
2022-09-22T04:04:50.792Z,100440.00
2022-09-22T04:07:17.814Z,100427.31
2022-09-22T04:09:44.537Z,100433.22
2022-09-22T04:12:11.401Z,100432.34
2022-09-22T04:14:38.194Z,100432.34
2022-09-22T04:17:05.565Z,100424.72
2022-09-22T04:19:36.187Z,100422.16
2022-09-22T04:22:04.348Z,100428.06
2022-09-22T04:24:31.577Z,100422.13
2022-09-22T04:27:28.212Z,100416.22
2022-09-22T04:29:45.082Z,100425.50
2022-09-22T04:32:11.888Z,100428.88
2022-09-22T04:34:38.643Z,100428.03
2022-09-22T04:37:05.741Z,100419.53
2022-09-22T04:39:32.675Z,100424.59
2022-09-22T04:41:59.357Z,100424.59
2022-09-22T04:44:26.158Z,100422.06
2022-09-22T04:46:53.050Z,100423.78
2022-09-22T04:49:19.788Z,100424.59
2022-09-22T04:51:46.629Z,100431.38
2022-09-22T04:54:14.862Z,100421.19
2022-09-22T04:56:44.850Z,100422.06
2022-09-22T04:59:11.958Z,100419.50
2022-09-22T05:01:39.151Z,100416.97
2022-09-22T05:04:06.099Z,100416.13
2022-09-22T05:06:32.907Z,100418.66
2022-09-22T05:08:59.707Z,100421.19
2022-09-22T05:11:26.561Z,100415.28
2022-09-22T05:13:53.289Z,100422.91
2022-09-22T05:16:20.066Z,100422.06
2022-09-22T05:18:49.382Z,100422.91
2022-09-22T05:21:18.748Z,100428.00
2022-09-22T05:23:46.219Z,100427.16
2022-09-22T05:26:13.084Z,100425.50
2022-09-22T05:28:40.794Z,100429.75
2022-09-22T05:31:08.232Z,100423.00
2022-09-22T05:33:35.086Z,100430.63
2022-09-22T05:36:02.716Z,100431.47
2022-09-22T05:38:29.528Z,100431.47
2022-09-22T05:40:56.296Z,100433.22
2022-09-22T05:43:23.279Z,100445.09
2022-09-22T05:45:50.191Z,100439.19
2022-09-22T05:48:17.450Z,100441.78
2022-09-22T05:50:47.335Z,100432.56
2022-09-22T05:54:21.293Z,100440.22
2022-09-22T05:57:06.283Z,100441.09
2022-09-22T05:59:45.010Z,100440.34
2022-09-22T06:02:25.223Z,100446.34
2022-09-22T06:04:54.156Z,100436.28
2022-09-22T06:07:22.713Z,100433.78
2022-09-22T06:09:50.356Z,100444.00
2022-09-22T06:12:18.879Z,100440.69
2022-09-22T06:14:46.094Z,100439.88
2022-09-22T06:17:13.181Z,100446.66
2022-09-22T06:19:41.224Z,100433.03
2022-09-22T06:22:11.025Z,100432.13
2022-09-22T06:24:38.004Z,100436.13
2022-09-22T06:27:05.125Z,100434.97
2022-09-22T06:29:31.863Z,100428.47
2022-09-22T06:31:58.640Z,100438.00
2022-09-22T06:34:27.118Z,100432.78
2022-09-22T06:36:57.155Z,100431.53
2022-09-22T06:39:23.897Z,100429.22
2022-09-22T06:41:50.632Z,100433.63
2022-09-22T06:44:17.574Z,100432.72
2022-09-22T06:46:45.636Z,100427.38
2022-09-22T06:49:12.838Z,100427.06
2022-09-22T06:51:39.970Z,100423.75
2022-09-22T06:54:07.222Z,100426.03
2022-09-22T06:56:39.787Z,100433.09
2022-09-22T06:59:10.929Z,100430.66
2022-09-22T07:01:39.448Z,100421.72
2022-09-22T07:04:06.831Z,100418.97
2022-09-22T07:06:33.787Z,100427.88
2022-09-22T07:09:00.699Z,100427.28
2022-09-22T07:11:27.472Z,100422.50
2022-09-22T07:13:54.830Z,100424.19
2022-09-22T07:16:25.194Z,100422.06
2022-09-22T07:18:58.241Z,100421.06
2022-09-22T07:21:27.755Z,100417.75
2022-09-22T07:23:56.553Z,100409.00
2022-09-22T07:26:30.912Z,100419.28
2022-09-22T07:29:00.736Z,100426.16
2022-09-22T07:31:30.396Z,100417.47
2022-09-22T07:34:00.225Z,100411.28
2022-09-22T07:36:30.694Z,100415.13
2022-09-22T07:39:03.731Z,100409.50
2022-09-22T07:41:32.298Z,100406.94
2022-09-22T07:44:20.827Z,100411.00
2022-09-22T07:46:47.696Z,100407.25
2022-09-22T07:49:15.182Z,100403.72
2022-09-22T07:51:42.127Z,100402.16
2022-09-22T07:54:09.477Z,100403.38
2022-09-22T07:56:40.682Z,100407.03
2022-09-22T07:59:10.947Z,100408.53
2022-09-22T08:01:43.814Z,100399.38
2022-09-22T08:04:18.820Z,100405.47
2022-09-22T08:06:48.716Z,100405.06
2022-09-22T08:09:15.950Z,100401.00
2022-09-22T08:11:45.999Z,100407.03
2022-09-22T08:14:12.929Z,100404.09
2022-09-22T08:16:41.058Z,100402.09
2022-09-22T08:19:12.278Z,100399.44
2022-09-22T08:21:48.465Z,100398.94
2022-09-22T08:24:22.730Z,100401.78
2022-09-22T08:26:53.134Z,100407.00
2022-09-22T08:29:20.674Z,100410.03
2022-09-22T08:31:49.313Z,100402.19
2022-09-22T08:34:17.804Z,100404.63
2022-09-22T08:36:49.268Z,100404.38
2022-09-22T08:39:18.179Z,100401.69
2022-09-22T08:42:14.844Z,100409.28
2022-09-22T08:45:27.149Z,100406.66
2022-09-22T08:48:26.098Z,100404.22
2022-09-22T08:51:19.509Z,100407.78
2022-09-22T08:53:51.549Z,100404.88
2022-09-22T08:57:05.978Z,100403.75
2022-09-22T08:59:48.567Z,100410.91
2022-09-22T09:02:32.764Z,100401.81
2022-09-22T09:05:22.990Z,100399.50
2022-09-22T09:08:21.571Z,100401.19
2022-09-22T09:11:24.982Z,100403.81
2022-09-22T09:14:30.346Z,100402.56
2022-09-22T09:17:10.456Z,100415.91
2022-09-22T09:19:45.121Z,100409.94
2022-09-22T09:22:27.428Z,100403.28
2022-09-22T09:25:23.303Z,100404.94
2022-09-22T09:27:57.717Z,100406.22
2022-09-22T09:30:24.522Z,100408.56
2022-09-22T09:33:00.612Z,100398.41
2022-09-22T09:35:42.079Z,100395.53
2022-09-22T09:38:14.770Z,100393.84
2022-09-22T09:40:42.771Z,100388.47
2022-09-22T09:43:10.992Z,100382.13
2022-09-22T09:46:04.934Z,100388.75
2022-09-22T09:48:41.006Z,100374.31
2022-09-22T09:51:14.196Z,100374.16
2022-09-22T09:53:47.509Z,100375.00
2022-09-22T09:56:26.746Z,100368.94
2022-09-22T09:59:22.087Z,100369.59
2022-09-22T10:01:52.696Z,100361.16
2022-09-22T10:04:35.908Z,100361.16
2022-09-22T10:07:15.105Z,100353.69
2022-09-22T10:09:43.423Z,100353.69
2022-09-22T10:12:32.803Z,100354.09
2022-09-22T10:15:01.633Z,100356.94
2022-09-22T10:17:33.916Z,100363.81
2022-09-22T10:20:25.692Z,100342.53
2022-09-22T10:22:54.389Z,100345.66
2022-09-22T10:25:27.303Z,100341.38
2022-09-22T10:28:12.585Z,100345.63
2022-09-22T10:30:41.110Z,100350.53
2022-09-22T10:33:22.067Z,100333.94
2022-09-22T10:36:11.798Z,100341.44
2022-09-22T10:38:43.538Z,100335.53
2022-09-22T10:41:27.236Z,100329.63
2022-09-22T10:44:37.558Z,100331.09
2022-09-22T10:47:21.563Z,100328.88
2022-09-22T10:50:38.618Z,100323.03
2022-09-22T10:53:45.679Z,100333.19
2022-09-22T10:56:50.241Z,100325.88
2022-09-22T10:59:59.498Z,100327.81
2022-09-22T11:02:41.314Z,100320.44
2022-09-22T11:05:48.853Z,100315.84
2022-09-22T11:08:39.130Z,100319.22
2022-09-22T11:11:40.554Z,100305.53
2022-09-22T11:15:03.974Z,100312.09
2022-09-22T11:18:00.556Z,100307.00
2022-09-22T11:20:47.637Z,100302.88
2022-09-22T11:23:44.994Z,100290.06
2022-09-22T11:26:52.134Z,100287.75
2022-09-22T11:29:57.308Z,100283.53
2022-09-22T11:32:40.192Z,100280.34
2022-09-22T11:35:57.148Z,100279.88
2022-09-22T11:38:47.726Z,100277.03
2022-09-22T11:41:38.726Z,100279.47
2022-09-22T11:44:32.116Z,100275.44
2022-09-22T11:47:25.905Z,100278.38
2022-09-22T11:50:40.581Z,100269.84
2022-09-22T11:53:58.281Z,100273.09
2022-09-22T11:56:42.934Z,100262.84
2022-09-22T11:59:37.459Z,100259.19
2022-09-22T12:02:20.615Z,100262.44
2022-09-22T12:04:57.770Z,100254.88
2022-09-22T12:07:33.812Z,100242.47
2022-09-22T12:10:16.900Z,100240.09
2022-09-22T12:12:48.569Z,100238.03
2022-09-22T12:15:30.944Z,100232.19
2022-09-22T12:18:19.044Z,100231.28
2022-09-22T12:21:14.354Z,100228.34
2022-09-22T12:23:47.699Z,100222.56
2022-09-22T12:26:32.020Z,100225.47
2022-09-22T12:29:02.587Z,100217.78
2022-09-22T12:31:40.519Z,100221.34
2022-09-22T12:34:25.180Z,100215.84
2022-09-22T12:37:08.377Z,100218.38
2022-09-22T12:39:49.370Z,100210.19
2022-09-22T12:42:37.790Z,100217.78
2022-09-22T12:45:38.001Z,100218.38
2022-09-22T12:48:28.930Z,100209.16
2022-09-22T12:51:17.206Z,100203.94
2022-09-22T12:53:44.287Z,100202.91
2022-09-22T12:56:52.753Z,100203.75
2022-09-22T12:59:37.624Z,100200.19
2022-09-22T13:02:17.346Z,100191.28
2022-09-22T13:04:56.335Z,100200.06
2022-09-22T13:07:44.715Z,100193.28
2022-09-22T13:10:26.530Z,100186.72
2022-09-22T13:13:05.762Z,100184.47
2022-09-22T13:15:45.733Z,100184.94
2022-09-22T13:18:46.564Z,100185.78
2022-09-22T13:21:13.249Z,100186.88
2022-09-22T13:23:59.729Z,100172.66
2022-09-22T13:26:38.918Z,100171.53
2022-09-22T13:29:17.608Z,100166.06
2022-09-22T13:31:51.080Z,100162.66
2022-09-22T13:34:37.175Z,100158.84
2022-09-22T13:37:16.621Z,100158.81
2022-09-22T13:39:49.447Z,100155.16
2022-09-22T13:42:34.058Z,100162.69
2022-09-22T13:45:13.753Z,100154.34
2022-09-22T13:47:43.533Z,100160.34
2022-09-22T13:50:22.940Z,100156.00
2022-09-22T13:52:51.706Z,100157.75
2022-09-22T13:55:34.816Z,100146.78
2022-09-22T13:58:03.490Z,100150.78
2022-09-22T14:01:01.793Z,100144.44
2022-09-22T14:03:37.851Z,100141.44
2022-09-22T14:06:11.687Z,100132.06
2022-09-22T14:08:38.944Z,100124.28
2022-09-22T14:11:15.160Z,100134.75
2022-09-22T14:13:58.624Z,100124.81
2022-09-22T14:16:38.910Z,100123.75
2022-09-22T14:19:17.581Z,100119.16
2022-09-22T14:21:59.265Z,100114.47
2022-09-22T14:24:27.783Z,100106.47
2022-09-22T14:27:04.172Z,100110.72
2022-09-22T14:29:35.348Z,100107.22
2022-09-22T14:32:16.873Z,100110.41
2022-09-22T14:34:51.668Z,100106.47
2022-09-22T14:37:35.926Z,100105.88
2022-09-22T14:40:13.205Z,100103.38
2022-09-22T14:42:40.078Z,100111.22
2022-09-22T14:45:09.572Z,100104.38
2022-09-22T14:47:42.290Z,100106.38
2022-09-22T14:50:20.273Z,100096.56
2022-09-22T14:53:21.700Z,100095.53
2022-09-22T14:55:53.241Z,100100.94
2022-09-22T14:58:27.122Z,100084.97
2022-09-22T15:01:19.177Z,100077.00
2022-09-22T15:04:03.660Z,100072.94
2022-09-22T15:06:39.403Z,100076.19
2022-09-22T15:09:19.053Z,100079.47
2022-09-22T15:11:50.021Z,100071.41
2022-09-22T15:14:35.178Z,100074.53
2022-09-22T15:17:23.148Z,100079.94
2022-09-22T15:19:57.121Z,100073.38
2022-09-22T15:22:24.499Z,100073.00
2022-09-22T15:24:51.659Z,100067.34
2022-09-22T15:27:19.093Z,100064.41
2022-09-22T15:29:47.960Z,100059.91
2022-09-22T15:32:15.451Z,100066.78
2022-09-22T15:34:44.541Z,100058.91
2022-09-22T15:37:19.340Z,100066.44
2022-09-22T15:39:46.133Z,100060.38
2022-09-22T15:42:13.113Z,100055.19
2022-09-22T15:44:40.531Z,100062.69
2022-09-22T15:47:17.007Z,100053.84
2022-09-22T15:49:44.995Z,100064.03
2022-09-22T15:52:11.840Z,100059.63
2022-09-22T15:54:38.577Z,100051.69
2022-09-22T15:57:06.292Z,100053.97
2022-09-22T15:59:33.689Z,100057.81
2022-09-22T16:02:01.716Z,100049.84
2022-09-22T16:04:33.605Z,100058.66
2022-09-22T16:07:05.657Z,100057.34
2022-09-22T16:09:32.381Z,100055.84
2022-09-22T16:11:59.598Z,100049.28
2022-09-22T16:14:26.413Z,100059.81
2022-09-22T16:16:53.219Z,100050.66
2022-09-22T16:19:20.230Z,100055.19
2022-09-22T16:21:56.693Z,100052.88
2022-09-22T16:24:23.539Z,100054.84
2022-09-22T16:26:51.709Z,100055.88
2022-09-22T16:29:18.561Z,100049.28
2022-09-22T16:31:45.369Z,100049.50
2022-09-22T16:34:12.401Z,100054.03
2022-09-22T16:36:41.549Z,100056.00
2022-09-22T16:39:08.304Z,100049.34
2022-09-22T16:41:36.364Z,100050.31
2022-09-22T16:44:04.786Z,100046.16
2022-09-22T16:46:34.357Z,100054.06
2022-09-22T16:49:12.805Z,100049.19
2022-09-22T16:51:42.577Z,100055.38
2022-09-22T16:54:13.537Z,100051.41
2022-09-22T16:56:43.504Z,100051.59
2022-09-22T16:59:15.146Z,100051.81
2022-09-22T17:01:43.940Z,100057.16
2022-09-22T17:04:16.222Z,100048.75
2022-09-22T17:06:43.545Z,100054.94
2022-09-22T17:09:11.994Z,100055.97
2022-09-22T17:11:42.897Z,100050.13
2022-09-22T17:14:21.183Z,100055.47
2022-09-22T17:16:56.413Z,100050.53
2022-09-22T17:19:27.982Z,100043.03
2022-09-22T17:21:56.634Z,100041.50
2022-09-22T17:24:25.953Z,100039.91
2022-09-22T17:26:56.136Z,100045.25
2022-09-22T17:29:32.718Z,100051.44
2022-09-22T17:32:04.291Z,100057.56
2022-09-22T17:34:33.802Z,100055.19
2022-09-22T17:37:02.011Z,100049.34
2022-09-22T17:39:30.285Z,100040.94
2022-09-22T17:41:57.405Z,100047.03
2022-09-22T17:44:28.108Z,100049.88
2022-09-22T17:47:13.713Z,100044.03
2022-09-22T17:49:58.972Z,100052.06
2022-09-22T17:52:31.957Z,100053.13
2022-09-22T17:55:09.533Z,100055.00
2022-09-22T17:57:45.484Z,100052.66
2022-09-22T18:00:21.972Z,100056.28
2022-09-22T18:02:53.540Z,100060.75
2022-09-22T18:05:26.448Z,100054.13
2022-09-22T18:07:57.815Z,100064.53
2022-09-22T18:10:32.322Z,100057.94
2022-09-22T18:13:00.441Z,100059.78
2022-09-22T18:15:29.154Z,100057.44
2022-09-22T18:17:57.819Z,100056.69
2022-09-22T18:20:26.107Z,100050.94
2022-09-22T18:22:54.195Z,100049.38
2022-09-22T18:25:24.167Z,100047.88
2022-09-22T18:27:53.136Z,100052.31
2022-09-22T18:30:19.932Z,100044.06
2022-09-22T18:32:48.151Z,100052.69
2022-09-22T18:35:15.167Z,100052.00
2022-09-22T18:37:42.110Z,100056.38
2022-09-22T18:40:12.182Z,100052.28
2022-09-22T18:42:39.400Z,100058.41
2022-09-22T18:45:06.923Z,100058.53
2022-09-22T18:47:44.060Z,100061.19
2022-09-22T18:50:12.423Z,100062.16
2022-09-22T18:52:43.100Z,100055.50
2022-09-22T18:55:11.842Z,100061.63
2022-09-22T18:57:38.706Z,100065.16
2022-09-22T19:00:06.160Z,100060.19
2022-09-22T19:02:33.067Z,100066.25
2022-09-22T19:04:59.877Z,100063.00
2022-09-22T19:07:43.355Z,100063.09
2022-09-22T19:10:20.501Z,100056.41
2022-09-22T19:12:49.087Z,100059.09
2022-09-22T19:15:18.943Z,100057.47
2022-09-22T19:17:49.291Z,100061.84
2022-09-22T19:20:26.093Z,100060.31
2022-09-22T19:22:53.852Z,100063.03
2022-09-22T19:25:22.169Z,100064.84
2022-09-22T19:27:50.930Z,100060.63
2022-09-22T19:30:21.838Z,100064.97
2022-09-22T19:32:50.117Z,100061.69
2022-09-22T19:35:17.199Z,100059.25
2022-09-22T19:37:44.083Z,100062.75
2022-09-22T19:40:18.885Z,100056.03
2022-09-22T19:42:47.205Z,100051.00
2022-09-22T19:45:14.610Z,100056.16
2022-09-22T19:47:41.475Z,100054.59
2022-09-22T19:50:09.076Z,100056.38
2022-09-22T19:52:37.689Z,100055.63
2022-09-22T19:55:11.478Z,100049.72
2022-09-22T19:57:41.530Z,100060.88
2022-09-22T20:00:18.096Z,100057.50
2022-09-22T20:02:45.668Z,100057.56
2022-09-22T20:05:20.716Z,100058.44
2022-09-22T20:07:49.110Z,100050.81
2022-09-22T20:10:17.354Z,100051.75
2022-09-22T20:12:44.388Z,100046.72
2022-09-22T20:15:15.040Z,100054.38
2022-09-22T20:17:46.010Z,100051.03
2022-09-22T20:20:20.650Z,100051.03
2022-09-22T20:22:53.978Z,100046.84
2022-09-22T20:25:28.359Z,100046.00
2022-09-22T20:27:56.099Z,100039.19
2022-09-22T20:30:23.221Z,100028.97
2022-09-22T20:32:50.966Z,100040.00
2022-09-22T20:35:21.618Z,100037.47
2022-09-22T20:37:48.406Z,100024.75
2022-09-22T20:40:21.319Z,100028.16
2022-09-22T20:42:53.053Z,100029.00
2022-09-22T20:45:22.869Z,100023.94
2022-09-22T20:47:50.033Z,100031.63
2022-09-22T20:50:16.891Z,100032.53
2022-09-22T20:52:43.652Z,100030.00
2022-09-22T20:55:11.463Z,100036.84
2022-09-22T20:57:38.925Z,100030.09
2022-09-22T21:00:06.914Z,100027.56
2022-09-22T21:02:33.816Z,100030.19
2022-09-22T21:05:00.713Z,100020.88
2022-09-22T21:07:27.550Z,100025.97
2022-09-22T21:10:12.603Z,100017.50
2022-09-22T21:12:40.362Z,100026.03
2022-09-22T21:15:08.041Z,100015.84
2022-09-22T21:17:35.397Z,100020.97
2022-09-22T21:20:03.417Z,100023.53
2022-09-22T21:22:31.029Z,100016.72
2022-09-22T21:24:57.801Z,100013.34
2022-09-22T21:27:24.984Z,100021.00
2022-09-22T21:29:51.855Z,100018.47
2022-09-22T21:32:19.879Z,100021.88
2022-09-22T21:34:46.656Z,100022.75
2022-09-22T21:37:14.491Z,100015.13
2022-09-22T21:39:41.274Z,100018.56
2022-09-22T21:42:07.990Z,100014.25
2022-09-22T21:44:34.781Z,100011.72
2022-09-22T21:47:01.490Z,100006.63
2022-09-22T21:49:28.420Z,100003.25
2022-09-22T21:51:55.234Z,100007.50
2022-09-22T21:54:23.092Z,100009.13
2022-09-22T21:56:50.683Z,100001.53
2022-09-22T21:59:17.582Z,99999.81
2022-09-22T22:01:45.160Z,99999.78
2022-09-22T22:04:15.223Z,100000.66
2022-09-22T22:06:46.220Z,99993.84
2022-09-22T22:09:20.974Z,99998.06
2022-09-22T22:11:51.701Z,100002.34
2022-09-22T22:14:20.924Z,99987.06
2022-09-22T22:16:52.906Z,99983.66
2022-09-22T22:19:24.783Z,99986.19
2022-09-22T22:21:52.331Z,99983.66
2022-09-22T22:24:29.043Z,99986.19
2022-09-22T22:27:05.854Z,99987.91
2022-09-22T22:29:38.397Z,99990.44
2022-09-22T22:32:07.947Z,99990.41
2022-09-22T22:34:34.860Z,99983.66
2022-09-22T22:37:01.891Z,99988.72
2022-09-22T22:39:29.813Z,99986.19
2022-09-22T22:41:56.560Z,99981.97
2022-09-22T22:44:23.400Z,99982.00
2022-09-22T22:46:50.397Z,99983.69
2022-09-22T22:49:17.234Z,99976.88
2022-09-22T22:51:44.271Z,99980.31
2022-09-22T22:54:12.569Z,99979.44
2022-09-22T22:56:42.374Z,99976.06
2022-09-22T22:59:11.117Z,99970.97
2022-09-22T23:01:38.009Z,99972.69
2022-09-22T23:04:08.327Z,99972.66
2022-09-22T23:06:43.945Z,99966.78
2022-09-22T23:09:15.831Z,99968.44
2022-09-22T23:11:43.793Z,99965.13
2022-09-22T23:14:12.670Z,99955.78
2022-09-22T23:16:43.579Z,99959.19
2022-09-22T23:19:14.492Z,99960.94
2022-09-22T23:21:41.447Z,99957.50
2022-09-22T23:24:16.325Z,99948.19
2022-09-22T23:26:45.218Z,99949.88
2022-09-22T23:29:12.329Z,99943.09
2022-09-22T23:31:39.175Z,99939.72
2022-09-22T23:34:06.262Z,99940.56
2022-09-22T23:36:33.060Z,99939.72
2022-09-22T23:39:03.395Z,99940.53
2022-09-22T23:41:32.982Z,99933.75
2022-09-22T23:43:59.992Z,99929.50
2022-09-22T23:46:27.040Z,99933.72
2022-09-22T23:48:55.456Z,99932.88
2022-09-22T23:51:22.955Z,99928.56
2022-09-22T23:53:49.880Z,99926.03
2022-09-22T23:56:16.696Z,99927.69
2022-09-22T23:58:43.512Z,99914.94
